createdAt,value
2016-07-18T00:00:39.901Z,83.53
2016-07-18T00:01:39.905Z,84.01
2016-07-18T00:02:39.900Z,83.92
2016-07-18T00:03:39.901Z,83.92
2016-07-18T00:04:39.900Z,83.82
2016-07-18T00:05:40.101Z,84.49
2016-07-18T00:06:39.904Z,84.49
2016-07-18T00:07:39.905Z,84.49
2016-07-18T00:08:39.905Z,84.49
2016-07-18T00:09:39.905Z,84.3
2016-07-18T00:10:39.905Z,84.58
2016-07-18T00:11:39.905Z,84.58
2016-07-18T00:12:39.906Z,84.78
2016-07-18T00:13:39.909Z,84.78
2016-07-18T00:14:39.909Z,84.97
2016-07-18T00:15:39.909Z,85.06
2016-07-18T00:16:39.910Z,84.88
2016-07-18T00:17:39.908Z,85.16
2016-07-18T00:18:39.909Z,84.88
2016-07-18T00:19:39.913Z,84.88
2016-07-18T00:20:39.913Z,85.16
2016-07-18T00:21:39.914Z,85.16
2016-07-18T00:22:39.919Z,85.25
2016-07-18T00:23:39.913Z,85.25
2016-07-18T00:24:39.914Z,85.74
2016-07-18T00:25:39.917Z,85.45
2016-07-18T00:26:39.918Z,85.74
2016-07-18T00:27:39.918Z,85.74
2016-07-18T00:28:39.916Z,85.74
2016-07-18T00:29:39.918Z,85.74
2016-07-18T00:30:39.921Z,85.74
2016-07-18T00:31:39.919Z,85.74
2016-07-18T00:32:39.914Z,85.93
2016-07-18T00:33:39.922Z,85.54
2016-07-18T00:34:39.922Z,85.64
2016-07-18T00:35:39.930Z,85.35
2016-07-18T00:36:39.922Z,85.54
2016-07-18T00:37:39.922Z,85.54
2016-07-18T00:38:39.197Z,85.54
2016-07-18T00:39:39.922Z,85.54
2016-07-18T00:40:39.923Z,85.74
2016-07-18T00:41:39.926Z,85.74
2016-07-18T00:42:39.926Z,85.88
2016-07-18T00:43:39.926Z,85.58
2016-07-18T00:44:39.927Z,85.21
2016-07-18T00:45:39.926Z,85.21
2016-07-18T00:46:39.927Z,85.01
2016-07-18T00:47:39.927Z,84.82
2016-07-18T00:48:39.931Z,85.01
2016-07-18T00:49:39.927Z,84.53
2016-07-18T00:50:39.932Z,84.91
2016-07-18T00:51:39.931Z,84.44
2016-07-18T00:52:39.930Z,84.72
2016-07-18T00:53:39.931Z,84.34
2016-07-18T00:54:39.930Z,84.25
2016-07-18T00:55:39.927Z,83.86
2016-07-18T00:56:39.934Z,83.86
2016-07-18T00:57:39.947Z,83.95
2016-07-18T00:58:39.943Z,83.67
2016-07-18T00:59:39.935Z,84.05
2016-07-18T01:00:39.935Z,83.38
2016-07-18T01:01:39.935Z,83.48
2016-07-18T01:02:39.939Z,83.67
2016-07-18T01:03:39.934Z,83.76
2016-07-18T01:04:39.935Z,83.76
2016-07-18T01:05:39.939Z,83.67
2016-07-18T01:06:39.939Z,83.48
2016-07-18T01:07:39.940Z,83.58
2016-07-18T01:08:39.939Z,83.29
2016-07-18T01:09:39.940Z,84.05
2016-07-18T01:10:39.940Z,83.67
2016-07-18T01:11:39.940Z,84.05
2016-07-18T01:12:39.944Z,84.05
2016-07-18T01:13:39.944Z,83.86
2016-07-18T01:14:39.944Z,84.05
2016-07-18T01:15:39.943Z,84.15
2016-07-18T01:16:39.944Z,84.05
2016-07-18T01:17:39.943Z,83.95
2016-07-18T01:18:39.942Z,84.72
2016-07-18T01:19:39.943Z,84.34
2016-07-18T01:20:39.947Z,84.53
2016-07-18T01:21:39.948Z,84.53
2016-07-18T01:22:39.946Z,84.34
2016-07-18T01:23:39.948Z,84.53
2016-07-18T01:24:39.948Z,84.34
2016-07-18T01:25:39.947Z,84.72
2016-07-18T01:26:39.947Z,84.44
2016-07-18T01:27:39.947Z,84.82
2016-07-18T01:28:39.951Z,84.82
2016-07-18T01:29:39.947Z,84.82
2016-07-18T01:30:39.951Z,84.82
2016-07-18T01:31:39.959Z,84.82
2016-07-18T01:32:39.951Z,84.82
2016-07-18T01:33:39.951Z,84.82
2016-07-18T01:34:39.951Z,84.91
2016-07-18T01:35:39.951Z,84.25
2016-07-18T01:36:39.231Z,84.44
2016-07-18T01:37:39.951Z,84.53
2016-07-18T01:38:39.956Z,84.53
2016-07-18T01:39:39.955Z,84.72
2016-07-18T01:40:39.956Z,84.72
2016-07-18T01:41:39.956Z,84.63
2016-07-18T01:42:39.956Z,84.53
2016-07-18T01:43:39.956Z,84.58
2016-07-18T01:44:39.956Z,84.38
2016-07-18T01:45:39.957Z,84.53
2016-07-18T01:46:39.960Z,84.44
2016-07-18T01:47:39.962Z,84.82
2016-07-18T01:48:39.959Z,84.53
2016-07-18T01:49:39.960Z,84.53
2016-07-18T01:50:39.961Z,85.01
2016-07-18T01:51:39.960Z,85.21
2016-07-18T01:52:39.960Z,85.01
2016-07-18T01:53:39.959Z,84.82
2016-07-18T01:54:39.961Z,85.21
2016-07-18T01:55:39.960Z,85.3
2016-07-18T01:56:39.964Z,85.3
2016-07-18T01:57:39.965Z,85.01
2016-07-18T01:58:39.963Z,85.49
2016-07-18T01:59:39.964Z,85.3
2016-07-18T02:00:39.964Z,85.39
2016-07-18T02:01:39.965Z,85.3
2016-07-18T02:02:39.963Z,85.39
2016-07-18T02:03:39.965Z,85.39
2016-07-18T02:04:39.963Z,85.3
2016-07-18T02:05:39.969Z,85.11
2016-07-18T02:06:39.964Z,85.11
2016-07-18T02:07:39.969Z,85.39
2016-07-18T02:08:39.968Z,85.58
2016-07-18T02:09:39.969Z,85.49
2016-07-18T02:10:39.969Z,85.78
2016-07-18T02:11:39.968Z,85.78
2016-07-18T02:12:39.969Z,85.88
2016-07-18T02:13:39.965Z,85.49
2016-07-18T02:14:39.973Z,86.16
2016-07-18T02:15:39.973Z,85.88
2016-07-18T02:16:39.973Z,86.16
2016-07-18T02:17:39.973Z,86.16
2016-07-18T02:18:39.973Z,85.97
2016-07-18T02:19:39.974Z,86.45
2016-07-18T02:20:39.974Z,86.07
2016-07-18T02:21:39.973Z,86.16
2016-07-18T02:22:39.969Z,86.83
2016-07-18T02:23:39.978Z,86.64
2016-07-18T02:24:39.974Z,86.64
2016-07-18T02:25:39.973Z,86.54
2016-07-18T02:26:39.978Z,86.54
2016-07-18T02:27:39.977Z,86.54
2016-07-18T02:28:39.978Z,86.45
2016-07-18T02:29:39.978Z,86.35
2016-07-18T02:30:39.982Z,86.54
2016-07-18T02:31:39.978Z,86.54
2016-07-18T02:32:39.983Z,86.35
2016-07-18T02:33:39.981Z,86.45
2016-07-18T02:34:39.982Z,86.45
2016-07-18T02:35:39.977Z,86.54
2016-07-18T02:36:39.983Z,86.16
2016-07-18T02:37:39.262Z,86.16
2016-07-18T02:38:39.982Z,86.16
2016-07-18T02:39:39.982Z,86.16
2016-07-18T02:40:39.982Z,86.54
2016-07-18T02:41:39.986Z,86.54
2016-07-18T02:42:39.982Z,86.64
2016-07-18T02:43:39.987Z,86.64
2016-07-18T02:44:39.985Z,86.54
2016-07-18T02:45:39.987Z,86.54
2016-07-18T02:46:39.986Z,86.74
2016-07-18T02:47:39.987Z,86.83
2016-07-18T02:48:39.983Z,86.74
2016-07-18T02:49:39.267Z,86.16
2016-07-18T02:50:39.986Z,86.07
2016-07-18T02:51:39.994Z,85.97
2016-07-18T02:52:39.999Z,86.25
2016-07-18T02:53:39.991Z,86.35
2016-07-18T02:54:39.990Z,86.25
2016-07-18T02:55:39.990Z,85.97
2016-07-18T02:56:39.990Z,86.25
2016-07-18T02:57:39.991Z,86.16
2016-07-18T02:58:39.991Z,86.35
2016-07-18T02:59:39.991Z,85.88
2016-07-18T03:00:39.991Z,86.16
2016-07-18T03:01:39.994Z,86.35
2016-07-18T03:02:39.995Z,86.54
2016-07-18T03:03:39.994Z,86.64
2016-07-18T03:04:39.994Z,86.45
2016-07-18T03:05:39.995Z,86.45
2016-07-18T03:06:39.995Z,86.45
2016-07-18T03:07:39.995Z,86.93
2016-07-18T03:08:39.994Z,86.64
2016-07-18T03:09:39.995Z,86.93
2016-07-18T03:10:39.999Z,86.83
2016-07-18T03:11:39.995Z,87.08
2016-07-18T03:12:39.999Z,87.79
2016-07-18T03:13:40.003Z,87.55
2016-07-18T03:14:40.000Z,87.46
2016-07-18T03:15:39.998Z,87.27
2016-07-18T03:16:40.000Z,87.65
2016-07-18T03:17:39.999Z,87.94
2016-07-18T03:18:40.001Z,87.65
2016-07-18T03:19:39.996Z,87.74
2016-07-18T03:20:39.999Z,87.37
2016-07-18T03:21:39.996Z,87.74
2016-07-18T03:22:39.999Z,87.84
2016-07-18T03:23:40.004Z,87.94
2016-07-18T03:24:40.009Z,88.23
2016-07-18T03:25:40.005Z,88.23
2016-07-18T03:26:40.004Z,88.13
2016-07-18T03:27:40.004Z,88.32
2016-07-18T03:28:40.005Z,88.32
2016-07-18T03:29:40.005Z,88.42
2016-07-18T03:30:39.281Z,88.51
2016-07-18T03:31:40.004Z,88.66
2016-07-18T03:32:40.009Z,88.8
2016-07-18T03:33:40.008Z,88.7
2016-07-18T03:34:40.008Z,88.32
2016-07-18T03:35:40.008Z,88.85
2016-07-18T03:36:40.009Z,89.04
2016-07-18T03:37:40.008Z,89.04
2016-07-18T03:38:40.009Z,89.04
2016-07-18T03:39:40.009Z,88.85
2016-07-18T03:40:40.009Z,88.95
2016-07-18T03:41:40.009Z,88.76
2016-07-18T03:42:40.113Z,89.04
2016-07-18T03:43:40.013Z,89.04
2016-07-18T03:44:40.012Z,89.14
2016-07-18T03:45:40.013Z,89.04
2016-07-18T03:46:40.012Z,89.33
2016-07-18T03:47:40.014Z,89.23
2016-07-18T03:48:40.012Z,89.23
2016-07-18T03:49:40.013Z,89.33
2016-07-18T03:50:40.026Z,89.33
2016-07-18T03:51:40.013Z,89.72
2016-07-18T03:52:40.013Z,89.72
2016-07-18T03:53:40.017Z,89.62
2016-07-18T03:54:40.017Z,89.72
2016-07-18T03:55:40.018Z,89.72
2016-07-18T03:56:39.297Z,90.29
2016-07-18T03:57:40.018Z,89.9
2016-07-18T03:58:40.017Z,90
2016-07-18T03:59:40.018Z,89.72
2016-07-18T04:00:40.018Z,90.19
2016-07-18T04:01:40.018Z,90.09
2016-07-18T04:02:40.017Z,89.9
2016-07-18T04:03:40.018Z,89.81
2016-07-18T04:04:40.021Z,90.09
2016-07-18T04:05:40.022Z,90
2016-07-18T04:06:40.021Z,90.48
2016-07-18T04:07:40.022Z,90.39
2016-07-18T04:08:40.022Z,90.48
2016-07-18T04:09:40.021Z,90.29
2016-07-18T04:10:40.022Z,90.19
2016-07-18T04:11:40.022Z,90.48
2016-07-18T04:12:40.030Z,90.96
2016-07-18T04:13:40.021Z,91.34
2016-07-18T04:14:40.026Z,90.77
2016-07-18T04:15:40.021Z,90.39
2016-07-18T04:16:40.025Z,90.39
2016-07-18T04:17:40.026Z,91.39
2016-07-18T04:18:40.026Z,91.1
2016-07-18T04:19:40.026Z,91
2016-07-18T04:20:40.026Z,90.76
2016-07-18T04:21:40.022Z,90.38
2016-07-18T04:22:40.026Z,89.56
2016-07-18T04:23:40.026Z,88.93
2016-07-18T04:24:40.030Z,88.11
2016-07-18T04:25:40.040Z,87.29
2016-07-18T04:26:40.030Z,86.24
2016-07-18T04:27:40.030Z,84.6
2016-07-18T04:28:40.026Z,84.03
2016-07-18T04:29:40.046Z,83.93
2016-07-18T04:30:40.030Z,83.64
2016-07-18T04:31:40.026Z,83.26
2016-07-18T04:32:40.031Z,83.03
2016-07-18T04:33:40.030Z,82.35
2016-07-18T04:34:40.031Z,83.22
2016-07-18T04:35:40.030Z,82.74
2016-07-18T04:36:40.034Z,82.64
2016-07-18T04:37:40.035Z,82.64
2016-07-18T04:38:40.035Z,81.87
2016-07-18T04:39:40.035Z,81.2
2016-07-18T04:40:40.031Z,80.63
2016-07-18T04:41:40.034Z,80.53
2016-07-18T04:42:40.034Z,80.43
2016-07-18T04:43:40.037Z,80.43
2016-07-18T04:44:40.042Z,80.66
2016-07-18T04:45:40.028Z,80.09
2016-07-18T04:46:40.034Z,79.36
2016-07-18T04:47:40.029Z,78.63
2016-07-18T04:48:40.034Z,76.84
2016-07-18T04:49:40.034Z,75.05
2016-07-18T04:50:40.034Z,73.1
2016-07-18T04:51:40.037Z,70.83
2016-07-18T04:52:40.038Z,68.49
2016-07-18T04:53:40.038Z,67.65
2016-07-18T04:54:40.038Z,65.37
2016-07-18T04:55:40.038Z,63.47
2016-07-18T04:56:40.038Z,62.24
2016-07-18T04:57:40.038Z,60.24
2016-07-18T04:58:40.037Z,58.92
2016-07-18T04:59:40.038Z,57.69
2016-07-18T05:00:40.041Z,56.92
2016-07-18T05:01:40.042Z,56.72
2016-07-18T05:02:40.041Z,56.7
2016-07-18T05:03:40.042Z,56.6
2016-07-18T05:04:40.041Z,56.09
2016-07-18T05:05:40.048Z,56.09
2016-07-18T05:06:40.042Z,55.89
2016-07-18T05:07:40.042Z,54.66
2016-07-18T05:08:40.042Z,53.63
2016-07-18T05:09:40.042Z,52.29
2016-07-18T05:10:40.046Z,51.16
2016-07-18T05:11:40.045Z,49.63
2016-07-18T05:12:40.046Z,47.74
2016-07-18T05:13:40.046Z,46.6
2016-07-18T05:14:40.058Z,45.18
2016-07-18T05:15:40.046Z,43.95
2016-07-18T05:16:40.047Z,42.8
2016-07-18T05:17:40.046Z,42.04
2016-07-18T05:18:40.051Z,40.6
2016-07-18T05:19:40.050Z,39.75
2016-07-18T05:20:40.051Z,38.1
2016-07-18T05:21:40.050Z,37.54
2016-07-18T05:22:40.046Z,34.83
2016-07-18T05:23:40.050Z,34.26
2016-07-18T05:24:40.045Z,33.3
2016-07-18T05:25:40.058Z,33.12
2016-07-18T05:26:40.053Z,32.14
2016-07-18T05:27:40.068Z,32.06
2016-07-18T05:28:40.054Z,30.88
2016-07-18T05:29:40.055Z,30.32
2016-07-18T05:30:40.054Z,29.93
2016-07-18T05:31:40.055Z,29.83
2016-07-18T05:32:40.059Z,29.35
2016-07-18T05:33:40.058Z,27.88
2016-07-18T05:34:40.059Z,28.38
2016-07-18T05:35:40.058Z,28.06
2016-07-18T05:36:40.059Z,27.97
2016-07-18T05:37:40.062Z,27.19
2016-07-18T05:38:40.062Z,27.48
2016-07-18T05:39:40.062Z,27.47
2016-07-18T05:40:40.063Z,27.76
2016-07-18T05:41:40.068Z,28.14
2016-07-18T05:42:40.115Z,27.86
2016-07-18T05:43:40.066Z,27.95
2016-07-18T05:44:39.346Z,27.76
2016-07-18T05:45:40.063Z,27.86
2016-07-18T05:46:40.066Z,27.17
2016-07-18T05:47:40.070Z,26.4
2016-07-18T05:48:40.070Z,26.21
2016-07-18T05:49:40.069Z,26.6
2016-07-18T05:50:40.071Z,26.59
2016-07-18T05:51:40.078Z,26.78
2016-07-18T05:52:40.123Z,27.37
2016-07-18T05:53:40.074Z,26.48
2016-07-18T05:54:40.074Z,26.67
2016-07-18T05:55:40.074Z,26.57
2016-07-18T05:56:40.078Z,27.15
2016-07-18T05:57:40.079Z,27.44
2016-07-18T05:58:40.086Z,27.42
2016-07-18T05:59:40.079Z,27.33
2016-07-18T06:00:40.078Z,27.23
2016-07-18T06:01:40.083Z,27.34
2016-07-18T06:02:40.082Z,26.56
2016-07-18T06:03:39.362Z,26.57
2016-07-18T06:04:40.087Z,26.77
2016-07-18T06:05:40.086Z,26.67
2016-07-18T06:06:40.087Z,26.67
2016-07-18T06:07:40.085Z,26.48
2016-07-18T06:08:40.090Z,27.64
2016-07-18T06:09:40.090Z,27.64
2016-07-18T06:10:40.090Z,27.34
2016-07-18T06:11:40.090Z,26.67
2016-07-18T06:12:40.094Z,26.48
2016-07-18T06:13:40.094Z,25.61
2016-07-18T06:14:40.095Z,24.85
2016-07-18T06:15:40.094Z,24.66
2016-07-18T06:16:40.098Z,24.09
2016-07-18T06:17:40.099Z,23.6
2016-07-18T06:18:40.098Z,23.21
2016-07-18T06:19:40.102Z,23.52
2016-07-18T06:20:40.103Z,24.19
2016-07-18T06:21:40.103Z,24.1
2016-07-18T06:22:40.102Z,23.22
2016-07-18T06:23:40.107Z,22.46
2016-07-18T06:24:40.106Z,22.26
2016-07-18T06:25:40.107Z,21.88
2016-07-18T06:26:40.107Z,21.78
2016-07-18T06:27:40.112Z,21.5
2016-07-18T06:28:40.112Z,21.5
2016-07-18T06:29:40.111Z,21.3
2016-07-18T06:30:40.117Z,21.88
2016-07-18T06:31:40.120Z,21.88
2016-07-18T06:32:40.117Z,21.29
2016-07-18T06:33:40.120Z,21.11
2016-07-18T06:34:40.119Z,20.83
2016-07-18T06:35:40.125Z,21.12
2016-07-18T06:36:40.124Z,20.53
2016-07-18T06:37:40.124Z,21.22
2016-07-18T06:38:40.132Z,21.3
2016-07-18T06:39:40.128Z,22.17
2016-07-18T06:40:40.128Z,22.55
2016-07-18T06:41:40.129Z,23.71
2016-07-18T06:42:40.133Z,23.99
2016-07-18T06:43:40.133Z,24.27
2016-07-18T06:44:40.132Z,23.88
2016-07-18T06:45:40.132Z,23.99
2016-07-18T06:46:40.136Z,23.22
2016-07-18T06:47:40.137Z,21.96
2016-07-18T06:48:40.140Z,21.39
2016-07-18T06:49:40.141Z,20.43
2016-07-18T06:50:40.140Z,19.27
2016-07-18T06:51:40.145Z,18.5
2016-07-18T06:52:40.149Z,18.23
2016-07-18T06:53:40.145Z,18.12
2016-07-18T06:54:40.145Z,18.51
2016-07-18T06:55:40.149Z,18.31
2016-07-18T06:56:40.149Z,18.21
2016-07-18T06:57:40.152Z,18.5
2016-07-18T06:58:40.154Z,18.6
2016-07-18T06:59:40.153Z,18.59
2016-07-18T07:00:40.157Z,18.19
2016-07-18T07:01:40.157Z,18.21
2016-07-18T07:02:40.158Z,18.12
2016-07-18T07:03:40.161Z,18.21
2016-07-18T07:04:40.162Z,18.31
2016-07-18T07:05:40.162Z,17.63
2016-07-18T07:06:40.165Z,18.12
2016-07-18T07:07:40.178Z,18.5
2016-07-18T07:08:40.170Z,18.21
2016-07-18T07:09:40.169Z,17.52
2016-07-18T07:10:40.170Z,17.73
2016-07-18T07:11:40.173Z,17.92
2016-07-18T07:12:40.174Z,17.43
2016-07-18T07:13:40.177Z,17.44
2016-07-18T07:14:40.178Z,17.44
2016-07-18T07:15:40.178Z,16.47
2016-07-18T07:16:40.183Z,16.17
2016-07-18T07:17:40.182Z,16.87
2016-07-18T07:18:40.185Z,17.35
2016-07-18T07:19:40.187Z,17.43
2016-07-18T07:20:40.186Z,17.91
2016-07-18T07:21:40.190Z,18.4
2016-07-18T07:22:40.189Z,18.31
2016-07-18T07:23:40.202Z,17.43
2016-07-18T07:24:40.202Z,17.24
2016-07-18T07:25:40.195Z,17.35
2016-07-18T07:26:40.199Z,17.24
2016-07-18T07:27:40.198Z,17.14
2016-07-18T07:28:40.199Z,17.63
2016-07-18T07:29:40.202Z,17.73
2016-07-18T07:30:40.202Z,18.21
2016-07-18T07:31:40.206Z,18.9
2016-07-18T07:32:40.206Z,18.7
2016-07-18T07:33:40.206Z,18.6
2016-07-18T07:34:40.210Z,18.61
2016-07-18T07:35:40.210Z,18.8
2016-07-18T07:36:40.214Z,18.8
2016-07-18T07:37:40.215Z,18.8
2016-07-18T07:38:40.214Z,18.51
2016-07-18T07:39:40.223Z,18.41
2016-07-18T07:40:40.219Z,18.12
2016-07-18T07:41:39.498Z,18.23
2016-07-18T07:42:40.321Z,18.23
2016-07-18T07:43:40.222Z,17.45
2016-07-18T07:44:40.226Z,17.35
2016-07-18T07:45:40.226Z,16.77
2016-07-18T07:46:40.230Z,16.47
2016-07-18T07:47:40.230Z,16.57
2016-07-18T07:48:40.246Z,16.47
2016-07-18T07:49:40.235Z,17.35
2016-07-18T07:50:40.234Z,18.33
2016-07-18T07:51:39.517Z,18.02
2016-07-18T07:52:40.239Z,18.12
2016-07-18T07:53:40.238Z,18.52
2016-07-18T07:54:40.243Z,18.02
2016-07-18T07:55:40.246Z,17.62
2016-07-18T07:56:40.246Z,17.24
2016-07-18T07:57:40.247Z,17.54
2016-07-18T07:58:40.250Z,17.73
2016-07-18T07:59:40.251Z,18.02
2016-07-18T08:00:40.250Z,18.12
2016-07-18T08:01:40.254Z,18.12
2016-07-18T08:02:40.255Z,17.63
2016-07-18T08:03:40.262Z,16.75
2016-07-18T08:04:40.259Z,16.97
2016-07-18T08:05:40.262Z,16.38
2016-07-18T08:06:40.262Z,16.47
2016-07-18T08:07:40.267Z,17.16
2016-07-18T08:08:40.263Z,16.67
2016-07-18T08:09:40.267Z,17.26
2016-07-18T08:10:40.271Z,17.25
2016-07-18T08:11:40.271Z,17.45
2016-07-18T08:12:40.275Z,17.35
2016-07-18T08:13:40.275Z,17.64
2016-07-18T08:14:40.280Z,17.54
2016-07-18T08:15:40.279Z,17.54
2016-07-18T08:16:40.279Z,17.14
2016-07-18T08:17:40.282Z,17.06
2016-07-18T08:18:40.283Z,17.16
2016-07-18T08:19:40.286Z,17.25
2016-07-18T08:20:40.287Z,17.45
2016-07-18T08:21:40.291Z,17.64
2016-07-18T08:22:40.291Z,17.54
2016-07-18T08:23:40.295Z,17.83
2016-07-18T08:24:40.295Z,17.54
2016-07-18T08:25:40.298Z,17.44
2016-07-18T08:26:40.303Z,17.24
2016-07-18T08:27:40.300Z,17.44
2016-07-18T08:28:40.303Z,17.54
2016-07-18T08:29:40.308Z,17.16
2016-07-18T08:30:40.307Z,16.57
2016-07-18T08:31:40.307Z,16.48
2016-07-18T08:32:40.311Z,16.48
2016-07-18T08:33:40.312Z,17.07
2016-07-18T08:34:40.312Z,17.35
2016-07-18T08:35:40.316Z,17.54
2016-07-18T08:36:40.324Z,17.44
2016-07-18T08:37:40.321Z,17.65
2016-07-18T08:38:40.319Z,17.45
2016-07-18T08:39:40.324Z,17.35
2016-07-18T08:40:40.327Z,17.35
2016-07-18T08:41:40.327Z,17.35
2016-07-18T08:42:40.328Z,17.55
2016-07-18T08:43:39.612Z,17.35
2016-07-18T08:44:40.332Z,17.54
2016-07-18T08:45:40.336Z,18.13
2016-07-18T08:46:40.335Z,18.42
2016-07-18T08:47:40.340Z,18.61
2016-07-18T08:48:40.340Z,19.2
2016-07-18T08:49:40.344Z,19.38
2016-07-18T08:50:40.345Z,19.18
2016-07-18T08:51:40.344Z,19.38
2016-07-18T08:52:40.349Z,19.29
2016-07-18T08:53:40.352Z,18.71
2016-07-18T08:54:40.358Z,18.52
2016-07-18T08:55:40.352Z,18.52
2016-07-18T08:56:40.356Z,18.14
2016-07-18T08:57:40.356Z,18.33
2016-07-18T08:58:40.360Z,18.43
2016-07-18T08:59:40.361Z,18.73
2016-07-18T09:00:40.364Z,18.43
2016-07-18T09:01:40.365Z,18.52
2016-07-18T09:02:40.372Z,18.23
2016-07-18T09:03:40.369Z,18.82
2016-07-18T09:04:40.373Z,18.71
2016-07-18T09:05:40.372Z,19.3
2016-07-18T09:06:40.377Z,19.59
2016-07-18T09:07:40.377Z,19.89
2016-07-18T09:08:40.381Z,19.98
2016-07-18T09:09:40.381Z,20.57
2016-07-18T09:10:40.385Z,20.67
2016-07-18T09:11:40.384Z,20.88
2016-07-18T09:12:40.389Z,20.68
2016-07-18T09:13:40.388Z,20.1
2016-07-18T09:14:40.393Z,21.2
2016-07-18T09:15:40.392Z,21.2
2016-07-18T09:16:40.396Z,20.7
2016-07-18T09:17:40.397Z,20.21
2016-07-18T09:18:40.397Z,20.21
2016-07-18T09:19:40.400Z,20.22
2016-07-18T09:20:40.401Z,20.72
2016-07-18T09:21:40.405Z,20.21
2016-07-18T09:22:40.405Z,20.9
2016-07-18T09:23:40.409Z,20.61
2016-07-18T09:24:40.409Z,20.12
2016-07-18T09:25:40.413Z,19.63
2016-07-18T09:26:40.414Z,19.84
2016-07-18T09:27:40.418Z,19.45
2016-07-18T09:28:40.417Z,19.36
2016-07-18T09:29:40.425Z,19.26
2016-07-18T09:30:40.421Z,18.48
2016-07-18T09:31:40.425Z,18.78
2016-07-18T09:32:40.425Z,18.78
2016-07-18T09:33:40.429Z,18.88
2016-07-18T09:34:40.429Z,18.98
2016-07-18T09:35:40.433Z,18.78
2016-07-18T09:36:40.433Z,19.26
2016-07-18T09:37:40.437Z,19.26
2016-07-18T09:38:40.441Z,19.36
2016-07-18T09:39:40.441Z,19.26
2016-07-18T09:40:40.442Z,19.26
2016-07-18T09:41:40.457Z,19.55
2016-07-18T09:42:40.498Z,20.12
2016-07-18T09:43:40.450Z,20.51
2016-07-18T09:44:40.450Z,20.6
2016-07-18T09:45:40.453Z,20.7
2016-07-18T09:46:40.454Z,21.09
2016-07-18T09:47:40.463Z,21.09
2016-07-18T09:48:40.457Z,20.99
2016-07-18T09:49:40.461Z,21.57
2016-07-18T09:50:40.461Z,22.15
2016-07-18T09:51:40.466Z,22.93
2016-07-18T09:52:40.462Z,23.31
2016-07-18T09:53:40.470Z,24.29
2016-07-18T09:54:40.465Z,24.47
2016-07-18T09:55:40.474Z,24.75
2016-07-18T09:56:40.478Z,25.33
2016-07-18T09:57:40.482Z,25.81
2016-07-18T09:58:40.480Z,26.78
2016-07-18T09:59:39.770Z,27.45
2016-07-18T10:00:40.486Z,27.81
2016-07-18T10:01:40.496Z,28.78
2016-07-18T10:02:40.490Z,28.88
2016-07-18T10:03:40.489Z,29.25
2016-07-18T10:04:40.489Z,29.45
2016-07-18T10:05:40.499Z,29.74
2016-07-18T10:06:40.496Z,29.83
2016-07-18T10:07:40.497Z,29.91
2016-07-18T10:08:40.493Z,30.2
2016-07-18T10:09:40.502Z,30.48
2016-07-18T10:10:40.506Z,30.86
2016-07-18T10:11:40.505Z,31.93
2016-07-18T10:12:40.511Z,31.82
2016-07-18T10:13:40.511Z,33.07
2016-07-18T10:14:40.514Z,33.17
2016-07-18T10:15:40.514Z,33.36
2016-07-18T10:16:40.518Z,33.26
2016-07-18T10:17:40.517Z,33.36
2016-07-18T10:18:40.522Z,33.73
2016-07-18T10:19:40.522Z,33.93
2016-07-18T10:20:40.526Z,33.56
2016-07-18T10:21:40.526Z,33.93
2016-07-18T10:22:40.530Z,34.14
2016-07-18T10:23:40.531Z,34.14
2016-07-18T10:24:40.534Z,34.14
2016-07-18T10:25:40.539Z,34.34
2016-07-18T10:26:40.538Z,33.26
2016-07-18T10:27:40.542Z,33.65
2016-07-18T10:28:40.543Z,33.46
2016-07-18T10:29:40.547Z,33.46
2016-07-18T10:30:40.547Z,33.26
2016-07-18T10:31:40.551Z,33.36
2016-07-18T10:32:40.551Z,33.44
2016-07-18T10:33:40.554Z,33.54
2016-07-18T10:34:40.554Z,34.22
2016-07-18T10:35:40.559Z,34.01
2016-07-18T10:36:40.563Z,34.21
2016-07-18T10:37:40.562Z,34.11
2016-07-18T10:38:40.562Z,34.31
2016-07-18T10:39:40.567Z,34.31
2016-07-18T10:40:40.571Z,34.79
2016-07-18T10:41:40.571Z,35.38
2016-07-18T10:42:40.575Z,35.38
2016-07-18T10:43:40.575Z,35.78
2016-07-18T10:44:40.579Z,35.98
2016-07-18T10:45:40.579Z,36.37
2016-07-18T10:46:40.587Z,36.29
2016-07-18T10:47:40.583Z,36.49
2016-07-18T10:48:40.587Z,36.68
2016-07-18T10:49:40.599Z,36.68
2016-07-18T10:50:40.587Z,36.78
2016-07-18T10:51:40.591Z,36.19
2016-07-18T10:52:40.594Z,36.19
2016-07-18T10:53:40.596Z,36.39
2016-07-18T10:54:40.599Z,36.78
2016-07-18T10:55:40.599Z,37.15
2016-07-18T10:56:40.604Z,37.05
2016-07-18T10:57:40.607Z,37.05
2016-07-18T10:58:40.609Z,36.86
2016-07-18T10:59:40.604Z,36.47
2016-07-18T11:00:40.612Z,36.96
2016-07-18T11:01:40.616Z,37.05
2016-07-18T11:02:40.616Z,37.15
2016-07-18T11:03:40.620Z,37.07
2016-07-18T11:04:40.620Z,36.78
2016-07-18T11:05:40.634Z,36.29
2016-07-18T11:06:40.631Z,36.29
2016-07-18T11:07:40.647Z,35.8
2016-07-18T11:08:40.628Z,35.24
2016-07-18T11:09:40.628Z,34.94
2016-07-18T11:10:40.632Z,35.24
2016-07-18T11:11:40.631Z,36.98
2016-07-18T11:12:40.640Z,37.27
2016-07-18T11:13:40.640Z,36.39
2016-07-18T11:14:40.649Z,35.71
2016-07-18T11:15:40.644Z,35.22
2016-07-18T11:16:40.648Z,34.83
2016-07-18T11:17:40.649Z,34.73
2016-07-18T11:18:40.653Z,34.45
2016-07-18T11:19:40.660Z,34.83
2016-07-18T11:20:40.656Z,35.12
2016-07-18T11:21:40.657Z,35.22
2016-07-18T11:22:40.661Z,35.41
2016-07-18T11:23:40.665Z,35.63
2016-07-18T11:24:40.664Z,35.35
2016-07-18T11:25:40.664Z,34.86
2016-07-18T11:26:40.669Z,34.57
2016-07-18T11:27:40.673Z,34.18
2016-07-18T11:28:40.673Z,34.38
2016-07-18T11:29:40.677Z,34.38
2016-07-18T11:30:40.677Z,34.67
2016-07-18T11:31:40.680Z,34.77
2016-07-18T11:32:40.681Z,34.96
2016-07-18T11:33:40.685Z,34.86
2016-07-18T11:34:40.702Z,34.78
2016-07-18T11:35:39.969Z,34.29
2016-07-18T11:36:40.693Z,34.29
2016-07-18T11:37:40.692Z,34.19
2016-07-18T11:38:40.698Z,34.29
2016-07-18T11:39:40.698Z,33.61
2016-07-18T11:40:40.705Z,33.51
2016-07-18T11:41:40.701Z,33.5
2016-07-18T11:42:40.806Z,33.7
2016-07-18T11:43:40.705Z,34.29
2016-07-18T11:44:40.738Z,34.28
2016-07-18T11:45:40.714Z,34.28
2016-07-18T11:46:40.714Z,34.18
2016-07-18T11:47:40.718Z,34.28
2016-07-18T11:48:40.718Z,34.18
2016-07-18T11:49:40.722Z,34.18
2016-07-18T11:50:40.721Z,34.28
2016-07-18T11:51:40.726Z,34.38
2016-07-18T11:52:40.730Z,34.38
2016-07-18T11:53:40.731Z,34.26
2016-07-18T11:54:40.734Z,34.38
2016-07-18T11:55:40.735Z,34.08
2016-07-18T11:56:40.739Z,34.26
2016-07-18T11:57:40.737Z,34.26
2016-07-18T11:58:40.742Z,34.26
2016-07-18T11:59:40.746Z,34.45
2016-07-18T12:00:40.747Z,34.36
2016-07-18T12:01:40.751Z,34.45
2016-07-18T12:02:40.751Z,34.55
2016-07-18T12:03:40.754Z,34.45
2016-07-18T12:04:40.758Z,34.45
2016-07-18T12:05:40.759Z,34.26
2016-07-18T12:06:40.763Z,34.26
2016-07-18T12:07:40.771Z,34.45
2016-07-18T12:08:40.768Z,34.84
2016-07-18T12:09:40.766Z,34.75
2016-07-18T12:10:40.771Z,34.55
2016-07-18T12:11:40.779Z,34.75
2016-07-18T12:12:40.775Z,34.75
2016-07-18T12:13:40.780Z,34.94
2016-07-18T12:14:40.779Z,34.36
2016-07-18T12:15:40.783Z,34.55
2016-07-18T12:16:40.783Z,34.45
2016-07-18T12:17:40.787Z,34.65
2016-07-18T12:18:40.787Z,34.63
2016-07-18T12:19:40.791Z,35.22
2016-07-18T12:20:40.792Z,35.61
2016-07-18T12:21:40.795Z,35.92
2016-07-18T12:22:40.800Z,35.72
2016-07-18T12:23:40.800Z,35.63
2016-07-18T12:24:40.804Z,35.14
2016-07-18T12:25:40.804Z,34.75
2016-07-18T12:26:40.808Z,34.26
2016-07-18T12:27:40.808Z,34.45
2016-07-18T12:28:40.812Z,34.94
2016-07-18T12:29:40.812Z,35.43
2016-07-18T12:30:40.812Z,35.82
2016-07-18T12:31:40.820Z,36.11
2016-07-18T12:32:40.826Z,36.11
2016-07-18T12:33:40.828Z,35.72
2016-07-18T12:34:40.827Z,35.33
2016-07-18T12:35:40.827Z,34.65
2016-07-18T12:36:40.828Z,34.28
2016-07-18T12:37:40.828Z,34.38
2016-07-18T12:38:40.836Z,34.08
2016-07-18T12:39:40.836Z,34.38
2016-07-18T12:40:40.840Z,34.28
2016-07-18T12:41:40.840Z,34.18
2016-07-18T12:42:40.844Z,33.89
2016-07-18T12:43:40.848Z,34.28
2016-07-18T12:44:40.848Z,34.18
2016-07-18T12:45:40.853Z,34.28
2016-07-18T12:46:40.852Z,34.18
2016-07-18T12:47:40.856Z,34.96
2016-07-18T12:48:40.860Z,34.65
2016-07-18T12:49:40.861Z,34.26
2016-07-18T12:50:40.864Z,34.26
2016-07-18T12:51:40.865Z,33.67
2016-07-18T12:52:40.869Z,34.06
2016-07-18T12:53:40.869Z,33.87
2016-07-18T12:54:40.873Z,33.87